createdAt,value
2023-03-18T00:01:43.408Z,1.48
2023-03-18T00:04:12.815Z,1.44
2023-03-18T00:06:41.065Z,1.39
2023-03-18T00:09:09.506Z,1.39
2023-03-18T00:11:39.427Z,1.59
2023-03-18T00:14:08.759Z,1.52
2023-03-18T00:16:37.412Z,1.45
2023-03-18T00:19:06.863Z,1.16
2023-03-18T00:21:35.151Z,1.18
2023-03-18T00:24:03.420Z,1.24
2023-03-18T00:26:31.966Z,1.10
2023-03-18T00:29:01.736Z,1.29
2023-03-18T00:31:30.351Z,1.53
2023-03-18T00:33:59.400Z,1.24
2023-03-18T00:36:28.547Z,1.50
2023-03-18T00:38:58.462Z,1.08
2023-03-18T00:41:27.524Z,1.10
2023-03-18T00:43:56.740Z,1.03
2023-03-18T00:46:28.703Z,1.01
2023-03-18T00:49:00.477Z,0.86
2023-03-18T00:51:30.281Z,0.98
2023-03-18T00:54:00.605Z,0.99
2023-03-18T00:56:32.287Z,1.05
2023-03-18T00:59:02.418Z,1.23
2023-03-18T01:01:32.528Z,0.98
2023-03-18T01:04:02.009Z,0.92
2023-03-18T01:06:32.610Z,0.78
2023-03-18T01:09:02.721Z,0.77
2023-03-18T01:11:31.434Z,0.51
2023-03-18T01:14:00.729Z,1.01
2023-03-18T01:16:30.219Z,0.81
2023-03-18T01:19:04.531Z,0.77
2023-03-18T01:21:34.009Z,0.61
2023-03-18T01:24:04.478Z,0.81
2023-03-18T01:26:34.994Z,0.87
2023-03-18T01:29:03.872Z,0.87
2023-03-18T01:31:34.799Z,0.72
2023-03-18T01:34:09.794Z,0.59
2023-03-18T01:36:51.886Z,0.40
2023-03-18T01:39:23.499Z,0.66
2023-03-18T01:41:52.457Z,0.62
2023-03-18T01:44:29.351Z,0.51
2023-03-18T01:46:58.921Z,0.27
2023-03-18T01:49:34.071Z,0.46
2023-03-18T01:52:07.273Z,0.66
2023-03-18T01:54:39.432Z,0.43
2023-03-18T01:57:08.045Z,0.25
2023-03-18T01:59:39.654Z,0.52
2023-03-18T02:02:10.427Z,0.88
2023-03-18T02:04:43.535Z,0.56
2023-03-18T02:07:18.226Z,0.59
2023-03-18T02:09:47.280Z,0.74
2023-03-18T02:12:19.840Z,0.57
2023-03-18T02:14:48.350Z,0.65
2023-03-18T02:17:27.825Z,0.26
2023-03-18T02:20:06.982Z,0.29
2023-03-18T02:22:38.518Z,0.09
2023-03-18T02:25:18.966Z,0.28
2023-03-18T02:27:51.561Z,0.55
2023-03-18T02:30:22.890Z,0.27
2023-03-18T02:32:54.600Z,0.26
2023-03-18T02:35:23.244Z,0.20
2023-03-18T02:37:53.357Z,0.08
2023-03-18T02:40:24.657Z,0.23
2023-03-18T02:42:55.417Z,0.10
2023-03-18T02:45:39.652Z,0.19
2023-03-18T02:48:12.006Z,0.20
2023-03-18T02:50:42.323Z,0.29
2023-03-18T02:53:13.279Z,0.29
2023-03-18T02:55:42.682Z,0.38
2023-03-18T02:58:12.757Z,0.03
2023-03-18T03:00:42.116Z,0.21
2023-03-18T03:03:10.582Z,0.14
2023-03-18T03:05:38.880Z,-0.04
2023-03-18T03:08:07.500Z,-0.28
2023-03-18T03:10:40.437Z,-0.21
2023-03-18T03:13:09.889Z,-0.03
2023-03-18T03:15:41.674Z,-0.15
2023-03-18T03:18:10.332Z,-0.17
2023-03-18T03:20:39.225Z,-0.12
2023-03-18T03:23:08.342Z,-0.17
2023-03-18T03:25:36.882Z,-0.06
2023-03-18T03:28:06.612Z,-0.24
2023-03-18T03:30:35.311Z,-0.04
2023-03-18T03:33:05.951Z,-0.15
2023-03-18T03:35:34.891Z,-0.47
2023-03-18T03:38:03.568Z,-0.36
2023-03-18T03:40:32.327Z,-0.26
2023-03-18T03:43:00.760Z,0.00
2023-03-18T03:45:29.222Z,-0.11
2023-03-18T03:47:57.500Z,-0.15
2023-03-18T03:50:27.207Z,-0.25
2023-03-18T03:52:55.472Z,-0.28
2023-03-18T03:55:24.106Z,-0.41
2023-03-18T03:57:54.493Z,-0.44
2023-03-18T04:00:23.672Z,-0.36
2023-03-18T04:02:53.389Z,-0.13
2023-03-18T04:05:25.569Z,-0.38
2023-03-18T04:07:55.781Z,-0.52
2023-03-18T04:10:36.651Z,-0.39
2023-03-18T04:13:07.093Z,-0.23
2023-03-18T04:15:35.409Z,-0.36
2023-03-18T04:18:31.405Z,-0.03
2023-03-18T04:20:59.964Z,-0.37
2023-03-18T04:23:42.459Z,-0.52
2023-03-18T04:26:11.758Z,-0.54
2023-03-18T04:28:40.530Z,-0.47
2023-03-18T04:31:11.041Z,-0.58
2023-03-18T04:33:39.899Z,-0.70
2023-03-18T04:36:09.398Z,-0.75
2023-03-18T04:38:39.415Z,-0.86
2023-03-18T04:41:09.846Z,-1.08
2023-03-18T04:43:39.597Z,-0.96
2023-03-18T04:46:08.876Z,-0.97
2023-03-18T04:48:37.555Z,-1.10
2023-03-18T04:51:09.396Z,-1.03
2023-03-18T04:53:38.311Z,-0.84
2023-03-18T04:56:08.939Z,-0.75
2023-03-18T04:58:53.151Z,-0.50
2023-03-18T05:01:28.475Z,-0.61
2023-03-18T05:03:57.269Z,-0.86
2023-03-18T05:06:32.024Z,-0.63
2023-03-18T05:09:06.859Z,-0.75
2023-03-18T05:11:36.460Z,-0.49
2023-03-18T05:14:15.737Z,-0.59
2023-03-18T05:16:48.255Z,-0.52
2023-03-18T05:19:18.050Z,-0.62
2023-03-18T05:21:54.411Z,-0.62
2023-03-18T05:24:23.647Z,-0.55
2023-03-18T05:26:52.252Z,-0.58
2023-03-18T05:29:25.918Z,-0.75
2023-03-18T05:32:08.195Z,-0.77
2023-03-18T05:34:38.524Z,-0.46
2023-03-18T05:37:09.269Z,-0.29
2023-03-18T05:39:41.721Z,-0.45
2023-03-18T05:42:14.644Z,-0.54
2023-03-18T05:44:45.603Z,-0.50
2023-03-18T05:47:16.604Z,-0.60
2023-03-18T05:50:01.780Z,-0.57
2023-03-18T05:52:30.264Z,-0.54
2023-03-18T05:55:03.396Z,-0.52
2023-03-18T05:57:36.005Z,-0.45
2023-03-18T06:00:11.558Z,-0.38
2023-03-18T06:02:47.761Z,-0.30
2023-03-18T06:05:18.653Z,-0.16
2023-03-18T06:07:48.707Z,-0.13
2023-03-18T06:10:18.212Z,0.08
2023-03-18T06:12:49.488Z,0.12
2023-03-18T06:15:21.796Z,0.29
2023-03-18T06:17:51.081Z,0.66
2023-03-18T06:20:19.969Z,0.57
2023-03-18T06:22:49.788Z,0.42
2023-03-18T06:25:20.322Z,0.66
2023-03-18T06:27:50.071Z,1.02
2023-03-18T06:30:22.429Z,1.00
2023-03-18T06:32:51.104Z,1.21
2023-03-18T06:35:21.894Z,0.99
2023-03-18T06:37:50.280Z,1.06
2023-03-18T06:40:18.785Z,1.28
2023-03-18T06:42:49.110Z,1.32
2023-03-18T06:45:35.280Z,1.84
2023-03-18T06:48:09.664Z,1.95
2023-03-18T06:50:42.316Z,1.86
2023-03-18T06:53:20.407Z,2.10
2023-03-18T06:55:49.945Z,2.39
2023-03-18T06:58:21.516Z,2.24
2023-03-18T07:01:01.830Z,2.26
2023-03-18T07:03:36.533Z,2.39
2023-03-18T07:06:05.976Z,2.71
2023-03-18T07:08:35.141Z,2.59
2023-03-18T07:11:05.369Z,2.87
2023-03-18T07:13:34.685Z,3.14
2023-03-18T07:16:07.278Z,3.01
2023-03-18T07:18:35.721Z,3.26
2023-03-18T07:21:03.995Z,3.51
2023-03-18T07:23:32.503Z,4.10
2023-03-18T07:26:02.190Z,4.12
2023-03-18T07:28:32.508Z,4.22
2023-03-18T07:31:04.027Z,4.32
2023-03-18T07:33:34.316Z,4.55
2023-03-18T07:36:04.219Z,4.51
2023-03-18T07:38:34.191Z,4.35
2023-03-18T07:41:02.548Z,4.27
2023-03-18T07:43:32.538Z,4.51
2023-03-18T07:46:07.475Z,4.54
2023-03-18T07:48:40.574Z,4.58
2023-03-18T07:54:08.396Z,4.85
2023-03-18T07:57:08.474Z,5.00
2023-03-18T08:00:01.281Z,5.24
2023-03-18T08:02:52.160Z,5.28
2023-03-18T08:05:27.538Z,5.44
2023-03-18T08:07:55.769Z,5.53
2023-03-18T08:10:24.697Z,5.70
2023-03-18T08:12:54.129Z,5.58
2023-03-18T08:15:23.191Z,5.52
2023-03-18T08:17:52.662Z,5.85
2023-03-18T08:20:22.055Z,6.02
2023-03-18T08:22:51.782Z,6.17
2023-03-18T08:25:22.238Z,6.44
2023-03-18T08:27:50.796Z,6.72
2023-03-18T08:30:19.697Z,6.84
2023-03-18T08:32:48.424Z,7.09
2023-03-18T08:35:17.013Z,7.38
2023-03-18T08:37:45.389Z,7.45
2023-03-18T08:40:15.390Z,7.89
2023-03-18T08:42:43.641Z,8.19
2023-03-18T08:45:13.204Z,8.05
2023-03-18T08:47:41.551Z,8.19
2023-03-18T08:50:11.215Z,8.48
2023-03-18T08:52:39.863Z,8.77
2023-03-18T08:55:09.758Z,8.80
2023-03-18T08:57:39.458Z,8.87
2023-03-18T09:00:09.147Z,9.03
2023-03-18T09:02:37.458Z,9.16
2023-03-18T09:05:06.648Z,9.34
2023-03-18T09:07:35.037Z,9.22
2023-03-18T09:10:04.524Z,9.39
2023-03-18T09:12:32.790Z,9.60
2023-03-18T09:15:03.667Z,9.86
2023-03-18T09:17:50.913Z,10.29
2023-03-18T09:20:22.703Z,9.76
2023-03-18T09:22:52.169Z,10.19
2023-03-18T09:25:20.928Z,10.74
2023-03-18T09:27:49.416Z,10.89
2023-03-18T09:30:19.302Z,11.00
2023-03-18T09:32:47.744Z,11.11
2023-03-18T09:35:17.800Z,10.90
2023-03-18T09:37:47.736Z,11.10
2023-03-18T09:40:22.571Z,11.84
2023-03-18T09:42:57.989Z,12.01
2023-03-18T09:45:32.404Z,12.21
2023-03-18T09:48:17.637Z,11.86
2023-03-18T09:50:51.480Z,12.03
2023-03-18T09:53:22.600Z,11.87
2023-03-18T09:55:54.041Z,12.07
2023-03-18T09:58:25.791Z,12.11
2023-03-18T10:00:58.917Z,12.02
2023-03-18T10:03:33.453Z,11.96
2023-03-18T10:06:05.864Z,12.59
2023-03-18T10:08:51.401Z,12.83
2023-03-18T10:11:24.512Z,13.31
